»·PEaware :: N352TV KBAM-KSPB

N352TV :: KBAM-KSPB

FLIGHT INFORMATION

Flight Status: Arrived
Operator: Privately registered:
United States
More flights under this callsign
Pilot: Jacob H. (10561)
Aircraft: BEECH AIRCRAFT BEECH AIRLINER
(B190)
More flights by this aircraft type
Origin: KBAM Battle Mountain
United States
Destination: KSPB Scappoose Industrial
United States
More flights between these airports :: More routes between these airports
Route: NEERO Q35 IMB J15 BTG
File this flight plan on PilotEdge
Remarks: PBN / D2 DOF / 170301 REG / N190SB EET / KZSE0105 RMK / TCAS SIMBRIEF
Altitude:
(Current/Filed)
18,000ft
Speed:
(Current/Filed)
251kts
Departed: 28-Feb-17 06:17 PM
Arrived: 28-Feb-17 08:21 PM
Distance/Time
Traveled:
406nm/2:04
Distance/Time
To Go:
Arrived

Flight Plot

Page will automatically refresh every two minutes.

Flight plan parsing failed; only flown route is shown


Map Options




Map Legend


Flown Route
Filed Route
Departure Airport
Arrival Airport
Navaid (VOR, NDB)
Fix

Horizontal Profiles

Position Reports

Time Latitude Longitude Heading Altitude Ground
Speed
28-Feb-17 17:55 40.607045 -116.873776 356 4537ft 0kts
28-Feb-17 17:56 40.607045 -116.873776 356 4537ft 0kts
28-Feb-17 17:57 40.607045 -116.873776 356 4537ft 0kts
28-Feb-17 17:58 40.607045 -116.873776 356 4537ft 0kts
28-Feb-17 17:59 40.607045 -116.873776 356 4537ft 0kts
28-Feb-17 18:00 40.607045 -116.873776 356 4537ft 0kts
28-Feb-17 18:01 40.607045 -116.873776 356 4537ft 0kts
28-Feb-17 18:02 40.607045 -116.873776 356 4537ft 0kts
28-Feb-17 18:03 40.607045 -116.873776 356 4537ft 0kts
28-Feb-17 18:04 40.607045 -116.873776 356 4537ft 0kts
28-Feb-17 18:05 40.607045 -116.873776 356 4537ft 0kts
28-Feb-17 18:06 40.607045 -116.873776 356 4537ft 0kts
28-Feb-17 18:07 40.607045 -116.873776 356 4537ft 0kts
28-Feb-17 18:08 40.607045 -116.873776 356 4537ft 0kts
28-Feb-17 18:09 40.607045 -116.873776 356 4537ft 0kts
28-Feb-17 18:10 40.607045 -116.873776 356 4537ft 0kts
28-Feb-17 18:11 40.607085 -116.873799 319 4537ft 1kts
28-Feb-17 18:12 40.606566 -116.873739 173 4537ft 6kts
28-Feb-17 18:13 40.604335 -116.874267 195 4537ft 9kts
28-Feb-17 18:14 40.601579 -116.875298 196 4537ft 9kts
28-Feb-17 18:15 40.600670 -116.875639 197 4537ft 17kts
28-Feb-17 18:16 40.597087 -116.880272 229 4537ft 21kts
28-Feb-17 18:17 40.594522 -116.883922 49 4537ft 24kts
28-Feb-17 18:18 40.615919 -116.852442 44 5603ft 149kts
28-Feb-17 18:19 40.650975 -116.809156 38 6671ft 186kts
28-Feb-17 18:20 40.697698 -116.828799 326 7654ft 188kts
28-Feb-17 18:21 40.737436 -116.860946 326 8547ft 188kts
28-Feb-17 18:22 40.781862 -116.896963 326 9547ft 188kts
28-Feb-17 18:23 40.827227 -116.933816 326 10599ft 204kts
28-Feb-17 18:24 40.875708 -116.972079 319 12358ft 206kts
28-Feb-17 18:25 40.921447 -117.007951 314 14355ft 194kts
28-Feb-17 18:26 40.962645 -117.041776 317 16734ft 157kts
28-Feb-17 18:27 40.998102 -117.071734 323 17851ft 173kts
28-Feb-17 18:28 41.042716 -117.108493 324 17884ft 202kts
28-Feb-17 18:29 41.090655 -117.148024 324 18070ft 212kts
28-Feb-17 18:30 41.140654 -117.189223 325 18078ft 219kts
28-Feb-17 18:31 41.192147 -117.231666 325 18077ft 222kts
28-Feb-17 18:32 41.243689 -117.274224 325 18076ft 222kts
28-Feb-17 18:33 41.295592 -117.317178 325 18075ft 222kts
28-Feb-17 18:34 41.348409 -117.361043 325 18075ft 230kts
28-Feb-17 18:35 41.402396 -117.405913 325 18073ft 232kts
28-Feb-17 18:36 41.456894 -117.451294 325 18072ft 233kts
28-Feb-17 18:37 41.511669 -117.497009 325 18071ft 233kts
28-Feb-17 18:38 41.565659 -117.542212 325 18070ft 233kts
28-Feb-17 18:39 41.620163 -117.587862 325 18098ft 232kts
28-Feb-17 18:40 41.674216 -117.633209 325 18175ft 231kts
28-Feb-17 18:41 41.728501 -117.678399 325 18184ft 233kts
28-Feb-17 18:42 41.783533 -117.723531 325 18182ft 233kts
28-Feb-17 18:43 41.838681 -117.768882 325 18181ft 234kts
28-Feb-17 18:44 41.893783 -117.814343 326 18180ft 234kts
28-Feb-17 18:45 41.948737 -117.859723 326 18179ft 233kts
28-Feb-17 18:46 42.003752 -117.905238 326 18178ft 233kts
28-Feb-17 18:47 42.058590 -117.950743 326 18177ft 233kts
28-Feb-17 18:48 42.103899 -117.988391 326 18180ft 233kts
28-Feb-17 18:49 42.175811 -118.021152 343 18183ft 241kts
28-Feb-17 18:50 42.232918 -118.063189 328 18186ft 235kts
28-Feb-17 18:51 42.280449 -118.098512 328 18185ft 235kts
28-Feb-17 18:52 42.347041 -118.147779 329 18184ft 235kts
28-Feb-17 18:53 42.394592 -118.183013 329 18183ft 235kts
28-Feb-17 18:54 42.461383 -118.232590 329 18182ft 235kts
28-Feb-17 18:55 42.518368 -118.275012 329 18181ft 235kts
28-Feb-17 18:56 42.565714 -118.310278 329 18180ft 235kts
28-Feb-17 18:57 42.632267 -118.359974 329 18179ft 235kts
28-Feb-17 18:58 42.679515 -118.395353 329 18178ft 235kts
28-Feb-17 18:59 42.736292 -118.437931 329 18177ft 235kts
28-Feb-17 19:00 42.792941 -118.480519 329 18176ft 234kts
28-Feb-17 19:01 42.849396 -118.523005 329 18175ft 234kts
28-Feb-17 19:02 42.879341 -118.545585 329 18175ft 234kts
28-Feb-17 19:03 42.932458 -118.590360 330 18156ft 235kts
28-Feb-17 19:04 42.989412 -118.631685 330 18153ft 234kts
28-Feb-17 19:05 43.045864 -118.672708 330 18159ft 235kts
28-Feb-17 19:06 43.102449 -118.714321 330 18159ft 235kts
28-Feb-17 19:07 43.159339 -118.756316 330 18174ft 236kts
28-Feb-17 19:08 43.216616 -118.798813 330 18195ft 237kts
28-Feb-17 19:09 43.273644 -118.841329 330 18194ft 237kts
28-Feb-17 19:10 43.330302 -118.883588 330 18193ft 237kts
28-Feb-17 19:11 43.387126 -118.926305 330 18192ft 237kts
28-Feb-17 19:12 43.443312 -118.968514 330 18191ft 237kts
28-Feb-17 19:13 43.499733 -119.011195 330 18190ft 237kts
28-Feb-17 19:14 43.556441 -119.054154 330 18189ft 237kts
28-Feb-17 19:15 43.612322 -119.096634 330 18188ft 237kts
28-Feb-17 19:16 43.666684 -119.138210 330 18187ft 237kts
28-Feb-17 19:17 43.718800 -119.178052 330 18186ft 236kts
28-Feb-17 19:18 43.771345 -119.218525 330 18185ft 236kts
28-Feb-17 19:19 43.824277 -119.259283 330 18185ft 236kts
28-Feb-17 19:20 43.875863 -119.299145 330 18184ft 236kts
28-Feb-17 19:21 43.927584 -119.339377 330 18183ft 236kts
28-Feb-17 19:22 43.980347 -119.380433 331 18182ft 236kts
28-Feb-17 19:23 44.033492 -119.422063 331 18181ft 236kts
28-Feb-17 19:24 44.087493 -119.464426 331 18180ft 236kts
28-Feb-17 19:25 44.141085 -119.506657 331 18193ft 237kts
28-Feb-17 19:26 44.194683 -119.549015 331 18192ft 238kts
28-Feb-17 19:27 44.250903 -119.578584 358 18194ft 243kts
28-Feb-17 19:28 44.313671 -119.574296 357 18190ft 244kts
28-Feb-17 19:29 44.376889 -119.570271 357 18189ft 244kts
28-Feb-17 19:30 44.438164 -119.580531 341 18189ft 239kts
28-Feb-17 19:31 44.496628 -119.613263 336 18188ft 238kts
28-Feb-17 19:32 44.553827 -119.650435 334 18187ft 238kts
28-Feb-17 19:33 44.610608 -119.687850 334 18190ft 239kts
28-Feb-17 19:34 44.654739 -119.748232 297 18193ft 253kts
28-Feb-17 19:35 44.676833 -119.840057 296 18189ft 255kts
28-Feb-17 19:36 44.698676 -119.934646 296 18188ft 255kts
28-Feb-17 19:37 44.720283 -120.029099 296 18202ft 254kts
28-Feb-17 19:38 44.741774 -120.123494 296 18213ft 254kts
28-Feb-17 19:39 44.763237 -120.218170 296 18213ft 254kts
28-Feb-17 19:40 44.784635 -120.313000 296 18212ft 254kts
28-Feb-17 19:41 44.805830 -120.407297 296 18211ft 254kts
28-Feb-17 19:42 44.827063 -120.502252 296 18211ft 254kts
28-Feb-17 19:43 44.847969 -120.596158 296 18210ft 254kts
28-Feb-17 19:44 44.868896 -120.689906 295 18265ft 253kts
28-Feb-17 19:45 44.890050 -120.784569 295 18267ft 254kts
28-Feb-17 19:46 44.910862 -120.879131 295 18266ft 254kts
28-Feb-17 19:47 44.931640 -120.974083 295 18265ft 254kts
28-Feb-17 19:48 44.952171 -121.068347 295 18265ft 254kts
28-Feb-17 19:49 44.972678 -121.162955 295 18264ft 254kts
28-Feb-17 19:50 44.993063 -121.257464 295 18263ft 254kts
28-Feb-17 19:51 45.013316 -121.351724 295 18263ft 254kts
28-Feb-17 19:52 45.033529 -121.446231 295 18262ft 254kts
28-Feb-17 19:53 45.053389 -121.539554 295 18261ft 254kts
28-Feb-17 19:54 45.072943 -121.631841 295 18261ft 254kts
28-Feb-17 19:55 45.098529 -121.712516 320 18273ft 238kts
28-Feb-17 19:56 45.142919 -121.771899 320 18005ft 250kts
28-Feb-17 19:57 45.190116 -121.834284 314 16183ft 225kts
28-Feb-17 19:58 45.232318 -121.890733 304 14022ft 215kts
28-Feb-17 19:59 45.270374 -121.942864 304 13982ft 213kts
28-Feb-17 20:00 45.310863 -121.997848 305 13997ft 223kts
28-Feb-17 20:01 45.353020 -122.054920 305 13693ft 239kts
28-Feb-17 20:02 45.400673 -122.119667 307 12744ft 262kts
28-Feb-17 20:03 45.451042 -122.188224 310 11824ft 280kts
28-Feb-17 20:04 45.500430 -122.255054 311 10972ft 286kts
28-Feb-17 20:05 45.548149 -122.318947 311 10156ft 286kts
28-Feb-17 20:06 45.601243 -122.391421 311 9236ft 284kts
28-Feb-17 20:07 45.657783 -122.468952 311 8249ft 282kts
28-Feb-17 20:08 45.713065 -122.544987 311 7280ft 280kts
28-Feb-17 20:09 45.750228 -122.631035 272 6281ft 245kts
28-Feb-17 20:10 45.758735 -122.724041 269 4901ft 230kts
28-Feb-17 20:11 45.786726 -122.796092 356 3507ft 252kts
28-Feb-17 20:12 45.846534 -122.813204 324 3197ft 217kts
28-Feb-17 20:13 45.895017 -122.856008 324 3205ft 218kts
28-Feb-17 20:14 45.944779 -122.900134 324 3201ft 218kts
28-Feb-17 20:15 45.993472 -122.941754 295 3205ft 204kts
28-Feb-17 20:16 45.971662 -122.973706 133 3203ft 176kts
28-Feb-17 20:17 45.936345 -122.929727 154 3201ft 169kts
28-Feb-17 20:18 45.895530 -122.898401 152 3193ft 175kts
28-Feb-17 20:19 45.854748 -122.886490 167 2225ft 135kts
28-Feb-17 20:20 45.820356 -122.876155 164 1004ft 117kts
28-Feb-17 20:21 45.791660 -122.867832 169 392ft 109kts
28-Feb-17 20:22 45.769617 -122.861488 168 64ft 34kts
28-Feb-17 20:23 45.768407 -122.861993 348 63ft 16kts
28-Feb-17 20:24 45.772266 -122.863326 284 63ft 2kts
28-Feb-17 20:25 45.772537 -122.863930 299 63ft 0kts
28-Feb-17 20:26 45.772537 -122.863930 299 64ft 0kts
28-Feb-17 20:27 45.772537 -122.863930 299 64ft 0kts
28-Feb-17 20:28 45.772537 -122.863930 299 64ft 0kts
28-Feb-17 20:29 45.772537 -122.863930 299 64ft 0kts
28-Feb-17 20:30 45.772537 -122.863930 299 64ft 0kts
28-Feb-17 20:31 45.772537 -122.863930 299 64ft 0kts
28-Feb-17 20:32 45.772537 -122.863930 299 64ft 0kts
28-Feb-17 20:33 45.772537 -122.863930 299 64ft 0kts
28-Feb-17 20:34 45.772537 -122.863930 299 64ft 0kts
28-Feb-17 20:35 45.772537 -122.863930 299 64ft 0kts
28-Feb-17 20:36 45.772537 -122.863930 299 64ft 0kts

Navigation Log

Ident Type
Flight plan parsing failed, navigation log unavailable